createdAt,value
2018-04-08T00:00:30.608Z,73.12
2018-04-08T00:02:58.159Z,73.34
2018-04-08T00:05:25.751Z,74.42
2018-04-08T00:07:53.342Z,74.42
2018-04-08T00:10:20.892Z,72.69
2018-04-08T00:12:48.464Z,73.89
2018-04-08T00:15:16.006Z,74.49
2018-04-08T00:17:43.575Z,75.06
2018-04-08T00:20:11.174Z,73.64
2018-04-08T00:22:38.772Z,71.75
2018-04-08T00:25:06.333Z,71.19
2018-04-08T00:27:33.898Z,73.02
2018-04-08T00:30:01.537Z,74.87
2018-04-08T00:32:29.080Z,75.75
2018-04-08T00:34:56.624Z,76.50
2018-04-08T00:37:24.197Z,77.50
2018-04-08T00:39:51.749Z,78.11
2018-04-08T00:42:19.333Z,78.39
2018-04-08T00:44:46.896Z,77.49
2018-04-08T00:47:14.467Z,76.21
2018-04-08T00:49:42.023Z,75.58
2018-04-08T00:52:09.587Z,75.86
2018-04-08T00:54:37.139Z,73.77
2018-04-08T00:57:05.057Z,72.88
2018-04-08T00:59:32.622Z,73.10
2018-04-08T01:02:00.159Z,74.68
2018-04-08T01:04:27.748Z,75.59
2018-04-08T01:06:55.312Z,74.19
2018-04-08T01:09:22.860Z,75.82
2018-04-08T01:11:50.472Z,77.19
2018-04-08T01:14:18.021Z,78.19
2018-04-08T01:16:45.564Z,78.94
2018-04-08T01:19:13.118Z,78.81
2018-04-08T01:21:40.668Z,78.87
2018-04-08T01:24:08.249Z,76.21
2018-04-08T01:26:35.810Z,74.54
2018-04-08T01:29:03.414Z,75.11
2018-04-08T01:31:30.969Z,75.23
2018-04-08T01:33:58.506Z,76.63
2018-04-08T01:36:26.098Z,77.70
2018-04-08T01:38:53.671Z,78.56
2018-04-08T01:41:21.372Z,79.56
2018-04-08T01:43:48.913Z,79.94
2018-04-08T01:46:16.504Z,80.06
2018-04-08T01:48:44.056Z,80.85
2018-04-08T01:51:11.609Z,79.39
2018-04-08T01:53:39.221Z,79.80
2018-04-08T01:56:06.777Z,80.28
2018-04-08T01:58:34.328Z,80.52
2018-04-08T02:01:01.938Z,79.12
2018-04-08T02:03:29.518Z,78.89
2018-04-08T02:05:57.055Z,79.94
2018-04-08T02:08:24.663Z,79.09
2018-04-08T02:10:52.208Z,79.58
2018-04-08T02:13:19.745Z,80.29
2018-04-08T02:15:47.304Z,80.24
2018-04-08T02:18:14.857Z,79.96
2018-04-08T02:20:42.465Z,77.14
2018-04-08T02:23:10.011Z,77.51
2018-04-08T02:25:37.580Z,77.50
2018-04-08T02:28:05.190Z,78.07
2018-04-08T02:30:32.737Z,78.62
2018-04-08T02:33:00.347Z,79.01
2018-04-08T02:35:27.897Z,79.08
2018-04-08T02:37:55.434Z,77.77
2018-04-08T02:40:23.040Z,78.52
2018-04-08T02:42:50.588Z,79.63
2018-04-08T02:45:18.129Z,77.64
2018-04-08T02:47:45.710Z,77.20
2018-04-08T02:50:13.255Z,79.02
2018-04-08T02:52:40.829Z,80.07
2018-04-08T02:55:08.392Z,80.32
2018-04-08T02:57:35.997Z,80.48
2018-04-08T03:00:03.558Z,79.80
2018-04-08T03:02:31.113Z,79.23
2018-04-08T03:04:58.674Z,79.18
2018-04-08T03:07:26.231Z,78.37
2018-04-08T03:09:53.789Z,75.69
2018-04-08T03:12:21.418Z,76.25
2018-04-08T03:14:48.984Z,77.71
2018-04-08T03:17:16.615Z,78.73
2018-04-08T03:19:44.192Z,79.52
2018-04-08T03:22:11.752Z,80.19
2018-04-08T03:24:39.291Z,80.84
2018-04-08T03:27:07.263Z,81.01
2018-04-08T03:29:34.815Z,80.63
2018-04-08T03:32:02.363Z,77.95
2018-04-08T03:34:29.961Z,77.47
2018-04-08T03:36:57.520Z,78.48
2018-04-08T03:39:25.083Z,77.97
2018-04-08T03:41:52.642Z,78.73
2018-04-08T03:44:20.196Z,78.98
2018-04-08T03:46:47.759Z,77.63
2018-04-08T03:49:15.309Z,77.89
2018-04-08T03:51:42.886Z,78.07
2018-04-08T03:54:10.507Z,77.98
2018-04-08T03:56:38.069Z,77.89
2018-04-08T03:59:05.622Z,77.71
2018-04-08T04:01:33.204Z,79.04
2018-04-08T04:04:00.760Z,79.77
2018-04-08T04:06:28.374Z,80.75
2018-04-08T04:08:55.915Z,81.58
2018-04-08T04:11:23.455Z,81.66
2018-04-08T04:13:51.045Z,82.02
2018-04-08T04:16:18.609Z,82.26
2018-04-08T04:18:58.029Z,82.83
2018-04-08T04:21:37.473Z,81.25
2018-04-08T04:27:09.302Z,82.21
2018-04-08T04:29:36.923Z,81.88
2018-04-08T04:32:04.476Z,80.83
2018-04-08T04:34:32.032Z,79.65
2018-04-08T04:36:59.652Z,80.59
2018-04-08T04:39:27.197Z,81.96
2018-04-08T04:41:54.752Z,82.78
2018-04-08T04:44:22.658Z,83.04
2018-04-08T04:46:50.208Z,82.43
2018-04-08T04:49:17.756Z,82.28
2018-04-08T04:51:45.319Z,82.29
2018-04-08T04:54:12.894Z,82.81
2018-04-08T04:56:40.442Z,80.51
2018-04-08T04:59:08.086Z,80.82
2018-04-08T05:01:35.639Z,81.36
2018-04-08T05:04:03.203Z,81.56
2018-04-08T05:06:30.781Z,82.10
2018-04-08T05:08:58.334Z,80.54
2018-04-08T05:11:25.947Z,79.45
2018-04-08T05:13:53.531Z,78.26
2018-04-08T05:16:21.076Z,77.00
2018-04-08T05:18:48.647Z,78.45
2018-04-08T05:21:16.192Z,79.43
2018-04-08T05:23:43.760Z,76.70
2018-04-08T05:26:11.329Z,73.76
2018-04-08T05:28:39.288Z,74.14
2018-04-08T05:31:06.832Z,75.04
2018-04-08T05:33:34.394Z,75.43
2018-04-08T05:36:01.976Z,74.54
2018-04-08T05:38:29.531Z,72.98
2018-04-08T05:40:57.127Z,70.64
2018-04-08T05:43:24.693Z,70.12
2018-04-08T05:45:52.259Z,70.63
2018-04-08T05:48:19.812Z,69.82
2018-04-08T05:50:47.390Z,71.27
2018-04-08T05:53:14.983Z,71.99
2018-04-08T05:55:42.542Z,72.19
2018-04-08T05:58:10.074Z,72.43
2018-04-08T06:00:37.672Z,71.41
2018-04-08T06:03:05.243Z,69.88
2018-04-08T06:05:32.796Z,70.17
2018-04-08T06:08:00.390Z,70.61
2018-04-08T06:10:27.953Z,72.21
2018-04-08T06:12:55.516Z,72.08
2018-04-08T06:15:23.072Z,71.63
2018-04-08T06:17:50.602Z,71.36
2018-04-08T06:20:18.211Z,70.16
2018-04-08T06:22:45.765Z,68.45
2018-04-08T06:25:13.325Z,67.87
2018-04-08T06:27:41.263Z,69.49
2018-04-08T06:30:08.836Z,70.48
2018-04-08T06:32:36.395Z,71.73
2018-04-08T06:35:04.002Z,70.71
2018-04-08T06:37:31.566Z,71.38
2018-04-08T06:39:59.149Z,70.94
2018-04-08T06:42:26.737Z,70.34
2018-04-08T06:44:54.593Z,71.57
2018-04-08T06:47:22.204Z,72.04
2018-04-08T06:49:49.806Z,73.83
2018-04-08T06:52:17.365Z,68.16
2018-04-08T06:54:44.926Z,69.05
2018-04-08T06:57:12.865Z,70.37
2018-04-08T06:59:40.467Z,67.68
2018-04-08T07:02:08.002Z,66.58
2018-04-08T07:04:36.134Z,64.59
2018-04-08T07:07:03.679Z,64.44
2018-04-08T07:09:31.249Z,64.00
2018-04-08T07:11:58.830Z,63.50
2018-04-08T07:14:26.395Z,62.40
2018-04-08T07:16:54.036Z,62.18
2018-04-08T07:19:21.597Z,62.62
2018-04-08T07:21:49.144Z,62.86
2018-04-08T07:24:16.720Z,61.47
2018-04-08T07:26:44.311Z,61.98
2018-04-08T07:29:11.851Z,62.44
2018-04-08T07:31:39.424Z,62.34
2018-04-08T07:34:07.376Z,62.51
2018-04-08T07:36:34.918Z,61.79
2018-04-08T07:39:02.480Z,62.17
2018-04-08T07:41:30.092Z,61.43
2018-04-08T07:43:57.673Z,60.52
2018-04-08T07:46:25.269Z,60.53
2018-04-08T07:48:52.851Z,60.35
2018-04-08T07:51:20.400Z,60.16
2018-04-08T07:53:47.997Z,59.50
2018-04-08T07:56:15.580Z,59.47
2018-04-08T07:58:43.175Z,58.58
2018-04-08T08:01:10.800Z,58.56
2018-04-08T08:03:38.351Z,58.88
2018-04-08T08:06:05.901Z,55.71
2018-04-08T08:08:33.473Z,54.49
2018-04-08T08:11:01.019Z,55.13
2018-04-08T08:13:28.587Z,52.36
2018-04-08T08:15:56.135Z,52.57
2018-04-08T08:18:23.866Z,51.84
2018-04-08T08:20:51.402Z,51.73
2018-04-08T08:23:18.958Z,49.82
2018-04-08T08:25:46.579Z,50.66
2018-04-08T08:28:14.124Z,51.54
2018-04-08T08:30:41.658Z,51.82
2018-04-08T08:33:09.260Z,51.07
2018-04-08T08:35:36.849Z,49.15
2018-04-08T08:38:04.435Z,49.98
2018-04-08T08:40:31.996Z,49.90
2018-04-08T08:42:59.563Z,48.99
2018-04-08T08:45:27.132Z,49.96
2018-04-08T08:47:54.699Z,49.61
2018-04-08T08:50:22.285Z,48.70
2018-04-08T08:52:49.840Z,48.08
2018-04-08T08:55:17.428Z,47.15
2018-04-08T08:57:44.977Z,47.57
2018-04-08T09:00:12.548Z,45.07
2018-04-08T09:02:40.102Z,47.05
2018-04-08T09:05:07.680Z,46.36
2018-04-08T09:07:35.236Z,47.25
2018-04-08T09:10:02.863Z,48.90
2018-04-08T09:12:30.413Z,48.14
2018-04-08T09:14:57.958Z,49.11
2018-04-08T09:17:25.598Z,48.18
2018-04-08T09:23:00.508Z,48.75
2018-04-08T09:25:28.596Z,48.35
2018-04-08T09:27:56.127Z,47.46
2018-04-08T09:30:23.678Z,46.56
2018-04-08T09:32:51.219Z,46.53
2018-04-08T09:35:18.860Z,45.90
2018-04-08T09:37:46.407Z,46.26
2018-04-08T09:40:13.948Z,47.03
2018-04-08T09:42:41.593Z,47.44
2018-04-08T09:45:09.188Z,47.81
2018-04-08T09:47:36.756Z,46.16
2018-04-08T09:50:04.319Z,47.71
2018-04-08T09:52:31.901Z,45.80
2018-04-08T09:54:59.475Z,46.73
2018-04-08T09:57:30.047Z,46.64
2018-04-08T09:59:57.605Z,47.04
2018-04-08T10:05:29.275Z,47.16
2018-04-08T10:07:56.870Z,46.63
2018-04-08T10:10:24.420Z,46.70
2018-04-08T10:12:51.985Z,46.51
2018-04-08T10:15:19.595Z,46.01
2018-04-08T10:17:47.148Z,44.95
2018-04-08T10:20:14.694Z,46.13
2018-04-08T10:22:42.278Z,45.76
2018-04-08T10:25:09.840Z,46.92
2018-04-08T10:27:37.411Z,45.15
2018-04-08T10:30:04.961Z,45.55
2018-04-08T10:32:32.536Z,45.95
2018-04-08T10:35:00.169Z,45.41
2018-04-08T10:37:27.728Z,46.41
2018-04-08T10:39:55.327Z,45.99
2018-04-08T10:42:22.881Z,46.73
2018-04-08T10:44:50.450Z,46.93
2018-04-08T10:47:18.068Z,45.51
2018-04-08T10:49:45.612Z,45.37
2018-04-08T10:52:13.163Z,44.56
2018-04-08T10:54:40.731Z,44.42
2018-04-08T10:57:08.672Z,45.63
2018-04-08T10:59:36.233Z,45.05
2018-04-08T11:02:03.784Z,46.25
2018-04-08T11:04:31.356Z,44.21
2018-04-08T11:06:58.891Z,44.81
2018-04-08T11:09:26.464Z,43.95
2018-04-08T11:11:54.020Z,43.41
2018-04-08T11:14:21.601Z,44.13
2018-04-08T11:16:49.159Z,42.64
2018-04-08T11:19:16.743Z,41.74
2018-04-08T11:21:44.289Z,42.29
2018-04-08T11:24:11.840Z,40.58
2018-04-08T11:26:39.404Z,40.43
2018-04-08T11:29:06.981Z,42.16
2018-04-08T11:31:34.594Z,42.45
2018-04-08T11:34:02.122Z,42.58
2018-04-08T11:36:29.679Z,40.81
2018-04-08T11:38:57.272Z,40.17
2018-04-08T11:41:24.830Z,42.08
2018-04-08T11:43:52.396Z,42.20
2018-04-08T11:46:19.968Z,43.53
2018-04-08T11:48:47.516Z,41.32
2018-04-08T11:51:15.101Z,40.99
2018-04-08T11:53:42.648Z,40.38
2018-04-08T11:56:10.217Z,41.41
2018-04-08T11:58:37.812Z,41.58
2018-04-08T12:01:05.425Z,41.86
2018-04-08T12:03:33.005Z,40.77
2018-04-08T12:06:00.585Z,41.73
2018-04-08T12:08:28.118Z,41.28
2018-04-08T12:10:55.664Z,40.90
2018-04-08T12:13:23.236Z,41.89
2018-04-08T12:15:50.851Z,40.55
2018-04-08T12:18:18.405Z,41.13
2018-04-08T12:20:45.993Z,41.71
2018-04-08T12:23:13.582Z,41.78
2018-04-08T12:25:41.151Z,40.63
2018-04-08T12:28:09.089Z,41.31
2018-04-08T12:30:36.635Z,42.03
2018-04-08T12:33:04.226Z,41.49
2018-04-08T12:35:31.801Z,40.83
2018-04-08T12:37:59.353Z,41.51
2018-04-08T12:40:26.940Z,40.21
2018-04-08T12:42:54.496Z,40.63
2018-04-08T12:45:22.034Z,40.21
2018-04-08T12:47:49.607Z,39.58
2018-04-08T12:50:17.178Z,38.96
2018-04-08T12:52:44.792Z,39.20
2018-04-08T12:55:12.365Z,39.68
2018-04-08T12:57:39.928Z,38.51
2018-04-08T13:00:07.521Z,39.79
2018-04-08T13:02:35.067Z,38.39
2018-04-08T13:05:02.993Z,37.91
2018-04-08T13:07:30.548Z,41.09
2018-04-08T13:09:58.098Z,39.70
2018-04-08T13:12:25.680Z,38.72
2018-04-08T13:14:53.251Z,38.46
2018-04-08T13:17:20.810Z,38.63
2018-04-08T13:19:48.360Z,38.37
2018-04-08T13:22:15.949Z,39.33
2018-04-08T13:24:43.506Z,39.41
2018-04-08T13:27:11.069Z,40.88
2018-04-08T13:29:38.644Z,41.56
2018-04-08T13:32:06.209Z,39.58
2018-04-08T13:34:33.812Z,41.95
2018-04-08T13:37:01.369Z,42.20
2018-04-08T13:39:28.925Z,40.29
2018-04-08T13:41:56.488Z,40.81
2018-04-08T13:44:24.097Z,38.98
2018-04-08T13:46:51.641Z,38.40
2018-04-08T13:49:19.180Z,38.74
2018-04-08T13:51:46.774Z,37.40
2018-04-08T13:54:14.321Z,38.34
2018-04-08T13:56:41.874Z,37.72
2018-04-08T13:59:09.480Z,37.22
2018-04-08T14:01:37.044Z,35.66
2018-04-08T14:04:04.584Z,37.03
2018-04-08T14:06:32.150Z,37.31
2018-04-08T14:08:59.764Z,37.68
2018-04-08T14:11:27.326Z,38.78
2018-04-08T14:13:54.863Z,38.78
2018-04-08T14:16:22.445Z,39.06
2018-04-08T14:18:49.983Z,39.38
2018-04-08T14:21:17.576Z,38.03
2018-04-08T14:23:45.132Z,37.64
2018-04-08T14:26:12.688Z,38.07
2018-04-08T14:28:40.288Z,41.13
2018-04-08T14:31:07.835Z,39.75
2018-04-08T14:33:35.389Z,40.29
2018-04-08T14:36:02.985Z,42.31
2018-04-08T14:38:30.548Z,40.98
2018-04-08T14:40:58.590Z,41.96
2018-04-08T14:43:26.149Z,39.75
2018-04-08T14:45:53.687Z,41.07
2018-04-08T14:48:21.286Z,41.02
2018-04-08T14:50:48.838Z,41.02
2018-04-08T14:53:16.405Z,40.61
2018-04-08T14:55:43.994Z,41.11
2018-04-08T14:58:11.552Z,40.98
2018-04-08T15:00:39.208Z,39.83
2018-04-08T15:03:06.790Z,40.17
2018-04-08T15:05:34.353Z,40.09
2018-04-08T15:08:01.936Z,39.96
2018-04-08T15:10:29.504Z,40.81
2018-04-08T15:12:57.089Z,40.43
2018-04-08T15:15:24.648Z,40.77
2018-04-08T15:17:52.228Z,40.99
2018-04-08T15:20:19.775Z,40.72
2018-04-08T15:22:47.342Z,41.30
2018-04-08T15:25:14.934Z,41.28
2018-04-08T15:27:42.470Z,42.46
2018-04-08T15:30:10.019Z,41.44
2018-04-08T15:32:37.589Z,41.63
2018-04-08T15:35:05.141Z,42.00
2018-04-08T15:37:32.742Z,42.54
2018-04-08T15:40:00.288Z,42.51
2018-04-08T15:42:27.879Z,41.63
2018-04-08T15:44:55.465Z,39.80
2018-04-08T15:47:22.998Z,40.16
2018-04-08T15:49:50.554Z,40.28
2018-04-08T15:52:18.139Z,39.76
2018-04-08T15:54:45.685Z,38.07
2018-04-08T15:57:13.288Z,37.92
2018-04-08T15:59:40.833Z,36.82
2018-04-08T16:02:08.394Z,36.40
2018-04-08T16:04:36.112Z,39.09
2018-04-08T16:07:03.674Z,37.28
2018-04-08T16:09:31.240Z,37.01
2018-04-08T16:11:58.807Z,37.74
2018-04-08T16:14:26.360Z,37.96
2018-04-08T16:16:53.974Z,38.46
2018-04-08T16:19:21.543Z,37.37
2018-04-08T16:21:49.124Z,37.99
2018-04-08T16:24:16.698Z,38.83
2018-04-08T16:26:44.266Z,38.96
2018-04-08T16:29:11.824Z,39.94
2018-04-08T16:31:39.382Z,40.65
2018-04-08T16:34:06.956Z,40.35
2018-04-08T16:36:34.539Z,41.74
2018-04-08T16:39:02.093Z,42.45
2018-04-08T16:41:29.663Z,42.45
2018-04-08T16:43:57.235Z,41.84
2018-04-08T16:46:24.809Z,42.51
2018-04-08T16:48:52.362Z,42.25
2018-04-08T16:51:19.929Z,42.38
2018-04-08T16:53:47.577Z,42.64
2018-04-08T16:56:15.131Z,43.04
2018-04-08T16:58:42.712Z,43.04
2018-04-08T17:01:10.265Z,42.72
2018-04-08T17:03:37.831Z,43.00
2018-04-08T17:06:05.390Z,42.43
2018-04-08T17:08:32.984Z,44.29
2018-04-08T17:11:00.529Z,43.48
2018-04-08T17:13:28.132Z,43.17
2018-04-08T17:15:56.072Z,43.47
2018-04-08T17:18:23.612Z,43.46
2018-04-08T17:20:51.162Z,43.38
2018-04-08T17:23:18.779Z,45.08
2018-04-08T17:25:46.343Z,43.96
2018-04-08T17:28:13.905Z,44.56
2018-04-08T17:30:41.506Z,44.55
2018-04-08T17:33:09.059Z,45.04
2018-04-08T17:35:36.600Z,45.66
2018-04-08T17:38:04.155Z,45.07
2018-04-08T17:40:31.700Z,44.92
2018-04-08T17:42:59.308Z,46.09
2018-04-08T17:45:26.923Z,46.80
2018-04-08T17:47:54.482Z,47.70
2018-04-08T17:50:22.061Z,48.55
2018-04-08T17:52:49.615Z,48.17
2018-04-08T17:55:17.208Z,50.06
2018-04-08T17:57:44.829Z,55.75
2018-04-08T18:00:12.370Z,56.65
2018-04-08T18:02:39.923Z,56.49
2018-04-08T18:05:07.500Z,57.01
2018-04-08T18:07:35.043Z,57.79
2018-04-08T18:10:02.654Z,58.17
2018-04-08T18:12:30.216Z,58.37
2018-04-08T18:14:57.762Z,57.74
2018-04-08T18:17:25.352Z,57.77
2018-04-08T18:19:52.887Z,55.33
2018-04-08T18:22:20.869Z,55.71
2018-04-08T18:24:48.436Z,58.88
2018-04-08T18:27:15.981Z,60.40
2018-04-08T18:29:43.562Z,61.46
2018-04-08T18:32:11.100Z,62.01
2018-04-08T18:34:38.648Z,62.74
2018-04-08T18:37:06.339Z,63.82
2018-04-08T18:39:33.885Z,65.08
2018-04-08T18:42:02.019Z,65.96
2018-04-08T18:44:29.940Z,66.85
2018-04-08T18:46:57.488Z,67.06
2018-04-08T18:49:25.029Z,67.24
2018-04-08T18:51:52.591Z,67.82
2018-04-08T18:54:20.163Z,68.00
2018-04-08T18:56:47.726Z,67.67
2018-04-08T18:59:15.277Z,67.77
2018-04-08T19:01:42.849Z,66.65
2018-04-08T19:04:10.378Z,65.96
2018-04-08T19:06:37.968Z,66.13
2018-04-08T19:09:06.295Z,65.43
2018-04-08T19:11:33.836Z,66.74
2018-04-08T19:14:01.769Z,67.63
2018-04-08T19:16:29.310Z,68.22
2018-04-08T19:18:56.853Z,68.22
2018-04-08T19:21:24.429Z,68.50
2018-04-08T19:23:51.958Z,68.73
2018-04-08T19:26:19.556Z,69.26
2018-04-08T19:28:47.157Z,69.44
2018-04-08T19:31:14.710Z,69.64
2018-04-08T19:33:42.265Z,66.77
2018-04-08T19:36:09.843Z,64.40
2018-04-08T19:38:37.690Z,62.76
2018-04-08T19:41:05.290Z,62.04
2018-04-08T19:43:32.836Z,62.25
2018-04-08T19:46:00.425Z,63.86
2018-04-08T19:48:27.962Z,66.24
2018-04-08T19:50:55.953Z,68.77
2018-04-08T19:53:23.616Z,69.69
2018-04-08T19:55:51.151Z,67.41
2018-04-08T19:58:18.761Z,67.12
2018-04-08T20:00:46.309Z,68.72
2018-04-08T20:03:13.866Z,66.52
2018-04-08T20:05:41.436Z,67.87
2018-04-08T20:08:08.967Z,68.96
2018-04-08T20:10:36.578Z,68.43
2018-04-08T20:13:04.115Z,67.61
2018-04-08T20:15:31.662Z,66.15
2018-04-08T20:17:59.231Z,65.10
2018-04-08T20:20:26.802Z,64.91
2018-04-08T20:22:54.405Z,64.95
2018-04-08T20:25:21.954Z,65.88
2018-04-08T20:27:49.508Z,66.47
2018-04-08T20:30:17.083Z,67.04
2018-04-08T20:32:44.635Z,67.56
2018-04-08T20:35:12.244Z,68.54
2018-04-08T20:37:39.793Z,69.06
2018-04-08T20:40:07.351Z,69.29
2018-04-08T20:42:34.951Z,70.02
2018-04-08T20:45:02.507Z,70.96
2018-04-08T20:47:30.060Z,71.02
2018-04-08T20:49:57.640Z,71.80
2018-04-08T20:52:25.201Z,72.40
2018-04-08T20:54:53.262Z,73.15
2018-04-08T20:57:20.822Z,73.62
2018-04-08T20:59:48.466Z,74.28
2018-04-08T21:02:16.037Z,75.37
2018-04-08T21:04:43.603Z,75.75
2018-04-08T21:07:11.143Z,76.33
2018-04-08T21:09:38.708Z,76.60
2018-04-08T21:14:04.387Z,77.41
2018-04-08T21:16:31.946Z,78.07
2018-04-08T21:18:59.518Z,78.92
2018-04-08T21:21:27.066Z,79.29
2018-04-08T21:23:55.063Z,79.65
2018-04-08T21:26:22.612Z,80.20
2018-04-08T21:28:50.151Z,80.36
2018-04-08T21:31:17.721Z,81.77
2018-04-08T21:33:45.278Z,81.53
2018-04-08T21:36:12.853Z,81.55
2018-04-08T21:38:40.405Z,82.15
2018-04-08T21:41:08.009Z,82.92
2018-04-08T21:43:35.564Z,83.61
2018-04-08T21:46:03.103Z,83.84
2018-04-08T21:48:30.704Z,84.30
2018-04-08T21:50:58.264Z,84.72
2018-04-08T21:53:25.814Z,84.84
2018-04-08T21:55:53.411Z,84.98
2018-04-08T21:58:20.981Z,84.62
2018-04-08T22:00:48.550Z,84.37
2018-04-08T22:03:16.110Z,84.40
2018-04-08T22:05:43.708Z,84.35
2018-04-08T22:08:11.267Z,84.83
2018-04-08T22:10:38.803Z,84.53
2018-04-08T22:13:06.380Z,84.78
2018-04-08T22:15:33.963Z,85.00
2018-04-08T22:18:01.550Z,85.24
2018-04-08T22:20:29.159Z,85.09
2018-04-08T22:22:56.723Z,85.35
2018-04-08T22:25:24.280Z,85.14
2018-04-08T22:27:51.844Z,85.22
2018-04-08T22:30:19.399Z,85.17
2018-04-08T22:32:47.011Z,85.44
2018-04-08T22:35:15.492Z,85.46
2018-04-08T22:37:43.053Z,85.29
2018-04-08T22:40:10.678Z,85.20
2018-04-08T22:42:38.244Z,85.00
2018-04-08T22:45:05.805Z,85.08
2018-04-08T22:47:33.420Z,85.33
2018-04-08T22:50:00.972Z,85.35
2018-04-08T22:52:28.536Z,85.19
2018-04-08T22:54:56.661Z,85.47
2018-04-08T22:57:24.248Z,86.45
2018-04-08T22:59:51.901Z,86.17
2018-04-08T23:02:19.447Z,86.49
2018-04-08T23:04:47.001Z,87.36
2018-04-08T23:07:14.571Z,87.57
2018-04-08T23:09:42.137Z,86.84
2018-04-08T23:12:09.731Z,86.94
2018-04-08T23:14:37.276Z,87.17
2018-04-08T23:17:04.828Z,86.64
2018-04-08T23:19:32.431Z,87.21
2018-04-08T23:21:59.972Z,87.59
2018-04-08T23:24:27.520Z,89.87
2018-04-08T23:26:55.082Z,88.99
2018-04-08T23:29:22.666Z,89.15
2018-04-08T23:31:50.220Z,88.77
2018-04-08T23:34:17.783Z,88.51
2018-04-08T23:36:45.355Z,89.55
2018-04-08T23:39:12.928Z,88.52
2018-04-08T23:41:40.909Z,88.93
2018-04-08T23:44:08.476Z,88.62
2018-04-08T23:46:36.063Z,87.73
2018-04-08T23:49:03.660Z,88.48
2018-04-08T23:51:31.213Z,89.53
2018-04-08T23:53:58.782Z,89.82
2018-04-08T23:56:26.360Z,90.58
2018-04-08T23:58:53.907Z,90.72
